createdAt,value
2023-04-25T00:02:19.013Z,12.45
2023-04-25T00:04:47.557Z,12.61
2023-04-25T00:07:15.271Z,12.60
2023-04-25T00:09:43.205Z,12.42
2023-04-25T00:12:10.895Z,12.61
2023-04-25T00:14:38.313Z,12.30
2023-04-25T00:17:06.906Z,12.79
2023-04-25T00:19:35.841Z,12.48
2023-04-25T00:22:03.296Z,12.21
2023-04-25T00:24:30.841Z,12.20
2023-04-25T00:26:58.516Z,12.34
2023-04-25T00:29:25.897Z,12.30
2023-04-25T00:31:53.354Z,12.45
2023-04-25T00:34:21.600Z,12.06
2023-04-25T00:36:49.362Z,12.26
2023-04-25T00:39:16.788Z,12.35
2023-04-25T00:41:44.903Z,12.37
2023-04-25T00:44:12.936Z,12.00
2023-04-25T00:46:40.982Z,12.21
2023-04-25T00:49:08.750Z,12.24
2023-04-25T00:51:36.429Z,12.34
2023-04-25T00:54:04.503Z,12.32
2023-04-25T00:56:32.252Z,12.64
2023-04-25T00:58:59.806Z,12.60
2023-04-25T01:01:27.392Z,12.47
2023-04-25T01:03:55.818Z,12.64
2023-04-25T01:06:23.605Z,12.54
2023-04-25T01:08:52.849Z,12.27
2023-04-25T01:11:20.982Z,12.36
2023-04-25T01:13:48.719Z,12.37
2023-04-25T01:16:16.457Z,12.17
2023-04-25T01:18:44.776Z,11.73
2023-04-25T01:21:14.207Z,11.99
2023-04-25T01:23:42.784Z,12.13
2023-04-25T01:26:12.106Z,12.18
2023-04-25T01:28:42.355Z,11.91
2023-04-25T01:31:10.552Z,11.95
2023-04-25T01:33:38.205Z,11.65
2023-04-25T01:36:06.018Z,11.95
2023-04-25T01:38:36.341Z,12.01
2023-04-25T01:41:04.052Z,11.59
2023-04-25T01:43:31.515Z,11.80
2023-04-25T01:45:59.526Z,12.02
2023-04-25T01:48:26.977Z,12.24
2023-04-25T01:50:54.453Z,11.88
2023-04-25T01:53:22.134Z,11.90
2023-04-25T01:55:49.576Z,11.82
2023-04-25T01:58:17.226Z,11.95
2023-04-25T02:00:47.511Z,11.69
2023-04-25T02:03:15.333Z,11.91
2023-04-25T02:05:42.871Z,11.39
2023-04-25T02:08:11.697Z,11.81
2023-04-25T02:10:39.386Z,11.62
2023-04-25T02:13:07.643Z,11.67
2023-04-25T02:15:35.440Z,11.61
2023-04-25T02:18:03.859Z,11.92
2023-04-25T02:20:32.464Z,11.64
2023-04-25T02:23:00.111Z,11.32
2023-04-25T02:25:29.293Z,11.63
2023-04-25T02:27:56.704Z,11.63
2023-04-25T02:30:24.403Z,11.89
2023-04-25T02:32:52.544Z,11.59
2023-04-25T02:35:19.989Z,11.73
2023-04-25T02:37:47.687Z,11.54
2023-04-25T02:40:15.101Z,11.47
2023-04-25T02:42:42.509Z,11.57
2023-04-25T02:45:10.578Z,11.42
2023-04-25T02:47:38.056Z,11.72
2023-04-25T02:50:06.063Z,11.86
2023-04-25T02:52:33.837Z,11.23
2023-04-25T02:55:02.761Z,11.41
2023-04-25T02:57:30.368Z,11.51
2023-04-25T02:59:58.076Z,11.52
2023-04-25T03:02:25.753Z,11.36
2023-04-25T03:04:53.593Z,11.33
2023-04-25T03:07:21.519Z,11.56
2023-04-25T03:09:49.561Z,11.26
2023-04-25T03:12:17.045Z,11.49
2023-04-25T03:14:44.695Z,11.29
2023-04-25T03:17:12.118Z,11.23
2023-04-25T03:19:39.533Z,11.08
2023-04-25T03:22:07.202Z,11.09
2023-04-25T03:24:34.631Z,10.80
2023-04-25T03:27:02.539Z,11.09
2023-04-25T03:29:30.332Z,10.75
2023-04-25T03:31:58.043Z,11.09
2023-04-25T03:34:26.975Z,10.96
2023-04-25T03:36:54.732Z,11.27
2023-04-25T03:39:22.255Z,10.91
2023-04-25T03:41:49.900Z,11.10
2023-04-25T03:44:18.302Z,11.02
2023-04-25T03:46:45.831Z,10.81
2023-04-25T03:49:13.264Z,11.14
2023-04-25T03:51:41.256Z,11.26
2023-04-25T03:54:08.744Z,10.78
2023-04-25T03:56:39.212Z,10.90
2023-04-25T03:59:07.335Z,10.87
2023-04-25T04:01:36.299Z,10.68
2023-04-25T04:04:04.230Z,10.99
2023-04-25T04:06:32.580Z,10.89
2023-04-25T04:09:00.926Z,10.53
2023-04-25T04:11:28.788Z,10.32
2023-04-25T04:13:57.116Z,10.26
2023-04-25T04:16:24.736Z,10.52
2023-04-25T04:18:52.608Z,10.70
2023-04-25T04:21:19.980Z,10.56
2023-04-25T04:23:47.634Z,10.36
2023-04-25T04:26:19.351Z,10.60
2023-04-25T04:28:46.824Z,10.75
2023-04-25T04:31:17.925Z,10.59
2023-04-25T04:33:47.514Z,10.68
2023-04-25T04:36:15.418Z,10.41
2023-04-25T04:38:43.368Z,10.66
2023-04-25T04:41:11.984Z,10.28
2023-04-25T04:43:40.595Z,10.27
2023-04-25T04:46:08.158Z,10.35
2023-04-25T04:48:36.346Z,10.12
2023-04-25T04:51:04.095Z,9.91
2023-04-25T04:53:32.564Z,10.14
2023-04-25T04:56:01.161Z,10.11
2023-04-25T04:58:30.781Z,10.07
2023-04-25T05:00:58.378Z,9.69
2023-04-25T05:03:28.403Z,9.97
2023-04-25T05:05:58.233Z,10.11
2023-04-25T05:08:27.065Z,9.81
2023-04-25T05:10:54.884Z,9.57
2023-04-25T05:13:25.870Z,9.70
2023-04-25T05:15:53.325Z,9.64
2023-04-25T05:18:23.580Z,9.79
2023-04-25T05:20:52.855Z,9.98
2023-04-25T05:23:20.790Z,9.75
2023-04-25T05:25:48.352Z,9.70
2023-04-25T05:28:15.887Z,9.49
2023-04-25T05:30:43.853Z,9.88
2023-04-25T05:33:11.462Z,9.82
2023-04-25T05:35:39.367Z,9.71
2023-04-25T05:38:07.533Z,10.00
2023-04-25T05:40:35.910Z,9.71
2023-04-25T05:43:04.285Z,9.71
2023-04-25T05:45:31.960Z,9.43
2023-04-25T05:48:00.158Z,9.97
2023-04-25T05:50:27.775Z,9.69
2023-04-25T05:52:55.829Z,9.73
2023-04-25T05:55:27.413Z,10.09
2023-04-25T05:57:55.338Z,10.31
2023-04-25T06:00:23.823Z,10.56
2023-04-25T06:02:51.963Z,10.40
2023-04-25T06:05:19.908Z,10.23
2023-04-25T06:07:47.496Z,10.15
2023-04-25T06:10:16.057Z,10.14
2023-04-25T06:12:43.706Z,10.36
2023-04-25T06:15:24.538Z,10.47
2023-04-25T06:17:56.545Z,10.32
2023-04-25T06:20:25.468Z,10.23
2023-04-25T06:22:53.729Z,10.58
2023-04-25T06:25:22.379Z,10.61
2023-04-25T06:27:49.830Z,10.32
2023-04-25T06:30:19.422Z,10.32
2023-04-25T06:32:47.626Z,10.51
2023-04-25T06:35:15.135Z,10.60
2023-04-25T06:37:42.661Z,10.61
2023-04-25T06:40:10.449Z,10.64
2023-04-25T06:42:37.941Z,11.36
2023-04-25T06:45:06.883Z,11.19
2023-04-25T06:47:35.294Z,11.33
2023-04-25T06:50:03.409Z,11.23
2023-04-25T06:52:32.284Z,10.96
2023-04-25T06:55:00.368Z,10.98
2023-04-25T06:57:28.932Z,11.34
2023-04-25T06:59:57.470Z,11.45
2023-04-25T07:02:25.255Z,11.46
2023-04-25T07:04:53.187Z,11.58
2023-04-25T07:07:20.644Z,12.08
2023-04-25T07:09:48.647Z,12.25
2023-04-25T07:12:16.299Z,12.41
2023-04-25T07:14:44.525Z,12.62
2023-04-25T07:17:12.554Z,12.55
2023-04-25T07:19:41.008Z,12.59
2023-04-25T07:22:08.442Z,12.41
2023-04-25T07:24:36.557Z,12.31
2023-04-25T07:27:05.439Z,12.56
2023-04-25T07:29:33.131Z,13.03
2023-04-25T07:32:01.106Z,13.08
2023-04-25T07:34:33.185Z,13.21
2023-04-25T07:37:01.285Z,12.95
2023-04-25T07:39:29.843Z,13.03
2023-04-25T07:41:59.369Z,13.24
2023-04-25T07:44:28.641Z,12.95
2023-04-25T07:46:56.172Z,13.10
2023-04-25T07:49:23.571Z,13.06
2023-04-25T07:51:51.215Z,12.58
2023-04-25T07:54:19.401Z,12.49
2023-04-25T07:56:52.922Z,12.67
2023-04-25T07:59:21.490Z,12.63
2023-04-25T08:01:49.169Z,12.57
2023-04-25T08:04:17.612Z,12.65
2023-04-25T08:06:46.507Z,12.40
2023-04-25T08:09:14.364Z,12.85
2023-04-25T08:11:43.159Z,13.32
2023-04-25T08:14:11.027Z,13.02
2023-04-25T08:16:38.811Z,13.43
2023-04-25T08:19:07.108Z,13.42
2023-04-25T08:21:35.279Z,13.34
2023-04-25T08:24:06.006Z,13.05
2023-04-25T08:26:34.570Z,12.68
2023-04-25T08:29:03.375Z,12.92
2023-04-25T08:31:30.909Z,13.17
2023-04-25T08:33:59.065Z,13.33
2023-04-25T08:36:38.584Z,12.86
2023-04-25T08:39:14.431Z,13.29
2023-04-25T08:41:43.650Z,13.21
2023-04-25T08:44:12.278Z,13.05
2023-04-25T08:46:43.712Z,13.45
2023-04-25T08:49:12.069Z,12.81
2023-04-25T08:51:50.787Z,12.76
2023-04-25T08:54:35.651Z,12.97
2023-04-25T08:57:05.142Z,12.71
2023-04-25T08:59:33.703Z,12.78
2023-04-25T09:02:01.963Z,12.68
2023-04-25T09:04:32.652Z,12.79
2023-04-25T09:07:00.497Z,13.10
2023-04-25T09:09:28.162Z,13.07
2023-04-25T09:11:56.503Z,13.14
2023-04-25T09:14:26.910Z,12.83
2023-04-25T09:16:57.287Z,13.19
2023-04-25T09:19:41.094Z,13.05
2023-04-25T09:22:10.150Z,12.95
2023-04-25T09:24:44.525Z,12.95
2023-04-25T09:27:13.904Z,13.39
2023-04-25T09:29:43.101Z,13.44
2023-04-25T09:32:17.091Z,13.51
2023-04-25T09:34:51.918Z,13.31
2023-04-25T09:37:23.271Z,13.41
2023-04-25T09:40:01.325Z,13.75
2023-04-25T09:42:32.904Z,13.81
2023-04-25T09:45:02.984Z,13.50
2023-04-25T09:47:33.565Z,13.68
2023-04-25T09:50:01.404Z,14.05
2023-04-25T09:52:29.695Z,13.98
2023-04-25T09:54:57.878Z,14.02
2023-04-25T09:57:26.288Z,14.01
2023-04-25T09:59:55.615Z,14.08
2023-04-25T10:02:28.299Z,13.73
2023-04-25T10:04:56.981Z,14.01
2023-04-25T10:07:28.249Z,13.86
2023-04-25T10:10:04.134Z,14.23
2023-04-25T10:12:35.207Z,14.14
2023-04-25T10:15:04.339Z,14.37
2023-04-25T10:17:32.746Z,13.94
2023-04-25T10:20:10.833Z,14.32
2023-04-25T10:22:42.370Z,13.98
2023-04-25T10:25:10.061Z,14.41
2023-04-25T10:27:38.282Z,14.51
2023-04-25T10:30:11.208Z,14.38
2023-04-25T10:32:39.422Z,14.43
2023-04-25T10:35:17.698Z,14.45
2023-04-25T10:38:01.566Z,14.35
2023-04-25T10:40:29.185Z,14.68
2023-04-25T10:42:57.158Z,14.36
2023-04-25T10:45:24.749Z,14.75
2023-04-25T10:47:52.175Z,14.41
2023-04-25T10:50:19.932Z,14.49
2023-04-25T10:52:47.302Z,14.45
2023-04-25T10:55:14.737Z,14.87
2023-04-25T10:57:48.476Z,15.09
2023-04-25T11:00:18.338Z,15.53
2023-04-25T11:02:53.191Z,15.39
2023-04-25T11:05:43.907Z,15.54
2023-04-25T11:08:26.805Z,15.68
2023-04-25T11:10:54.367Z,15.51
2023-04-25T11:13:22.059Z,15.84
2023-04-25T11:16:03.093Z,15.54
2023-04-25T11:18:42.831Z,16.20
2023-04-25T11:21:10.963Z,16.53
2023-04-25T11:23:38.631Z,16.41
2023-04-25T11:26:06.388Z,15.80
2023-04-25T11:28:33.779Z,15.43
2023-04-25T11:31:01.236Z,15.14
2023-04-25T11:33:28.933Z,14.90
2023-04-25T11:35:57.443Z,15.13
2023-04-25T11:38:27.184Z,15.08
2023-04-25T11:40:55.280Z,15.14
2023-04-25T11:43:24.060Z,15.43
2023-04-25T11:45:52.798Z,15.94
2023-04-25T11:48:24.352Z,15.93
2023-04-25T11:50:55.019Z,16.19
2023-04-25T11:53:22.678Z,16.17
2023-04-25T11:55:51.338Z,16.61
2023-04-25T11:58:20.589Z,16.46
2023-04-25T12:00:50.034Z,16.60
2023-04-25T12:03:19.421Z,16.35
2023-04-25T12:05:47.714Z,16.44
2023-04-25T12:08:17.335Z,16.29
2023-04-25T12:10:46.640Z,16.30
2023-04-25T12:13:27.684Z,16.62
2023-04-25T12:15:57.081Z,16.67
2023-04-25T12:18:26.239Z,16.86
2023-04-25T12:20:54.368Z,17.28
2023-04-25T12:23:29.315Z,17.12
2023-04-25T12:25:57.192Z,17.05
2023-04-25T12:28:25.846Z,16.89
2023-04-25T12:30:56.361Z,16.66
2023-04-25T12:33:24.293Z,16.53
2023-04-25T12:35:51.937Z,16.33
2023-04-25T12:38:24.376Z,15.72
2023-04-25T12:40:52.212Z,16.15
2023-04-25T12:43:20.236Z,16.14
2023-04-25T12:45:54.576Z,16.09
2023-04-25T12:48:22.703Z,16.66
2023-04-25T12:50:51.621Z,16.02
2023-04-25T12:53:21.489Z,16.51
2023-04-25T12:55:49.838Z,16.79
2023-04-25T12:58:18.644Z,16.85
2023-04-25T13:00:46.535Z,16.86
2023-04-25T13:03:14.518Z,16.25
2023-04-25T13:05:43.109Z,16.52
2023-04-25T13:08:10.663Z,16.37
2023-04-25T13:10:42.437Z,16.35
2023-04-25T13:13:09.808Z,16.57
2023-04-25T13:15:37.599Z,16.74
2023-04-25T13:18:08.739Z,16.47
2023-04-25T13:20:36.172Z,16.27
2023-04-25T13:23:03.565Z,16.19
2023-04-25T13:25:31.262Z,16.58
2023-04-25T13:27:58.648Z,16.78
2023-04-25T13:30:26.012Z,16.41
2023-04-25T13:32:55.181Z,16.85
2023-04-25T13:35:22.641Z,16.75
2023-04-25T13:37:50.157Z,17.00
2023-04-25T13:40:18.115Z,16.61
2023-04-25T13:42:46.403Z,16.51
2023-04-25T13:45:13.806Z,17.23
2023-04-25T13:47:41.564Z,17.26
2023-04-25T13:50:10.518Z,17.79
2023-04-25T13:52:37.956Z,17.90
2023-04-25T13:55:07.865Z,17.77
2023-04-25T13:57:36.232Z,17.43
2023-04-25T14:00:10.010Z,17.89
2023-04-25T14:02:37.978Z,17.84
2023-04-25T14:05:06.050Z,17.64
2023-04-25T14:07:36.022Z,17.39
2023-04-25T14:10:05.765Z,17.44
2023-04-25T14:12:33.426Z,17.05
2023-04-25T14:15:01.145Z,16.58
2023-04-25T14:17:28.839Z,16.75
2023-04-25T14:19:56.305Z,16.57
2023-04-25T14:22:23.769Z,16.42
2023-04-25T14:24:51.458Z,16.12
2023-04-25T14:27:18.811Z,16.22
2023-04-25T14:29:46.609Z,16.07
2023-04-25T14:32:14.342Z,16.12
2023-04-25T14:34:42.047Z,15.94
2023-04-25T14:37:09.469Z,15.84
2023-04-25T14:39:37.832Z,15.99
2023-04-25T14:42:05.504Z,16.03
2023-04-25T14:44:32.870Z,15.99
2023-04-25T14:47:01.154Z,15.62
2023-04-25T14:49:29.330Z,15.67
2023-04-25T14:51:58.983Z,15.95
2023-04-25T14:54:26.727Z,16.19
2023-04-25T14:56:54.104Z,15.97
2023-04-25T14:59:22.213Z,16.17
2023-04-25T15:01:50.375Z,16.29
2023-04-25T15:04:18.652Z,16.26
2023-04-25T15:06:46.144Z,16.23
2023-04-25T15:09:14.074Z,15.89
2023-04-25T15:11:41.499Z,15.61
2023-04-25T15:14:08.950Z,16.19
2023-04-25T15:16:36.876Z,15.58
2023-04-25T15:19:04.902Z,15.71
2023-04-25T15:21:32.660Z,15.58
2023-04-25T15:24:00.631Z,15.99
2023-04-25T15:26:28.345Z,15.78
2023-04-25T15:28:56.307Z,15.29
2023-04-25T15:31:24.477Z,15.19
2023-04-25T15:33:52.063Z,15.41
2023-04-25T15:36:19.666Z,15.42
2023-04-25T15:38:47.327Z,15.74
2023-04-25T15:41:14.748Z,15.38
2023-04-25T15:43:42.094Z,15.33
2023-04-25T15:46:09.794Z,15.25
2023-04-25T15:48:37.796Z,14.12
2023-04-25T15:51:05.152Z,14.88
2023-04-25T15:53:32.831Z,15.08
2023-04-25T15:56:00.219Z,14.74
2023-04-25T15:58:27.765Z,14.62
2023-04-25T16:00:56.685Z,14.95
2023-04-25T16:03:24.545Z,14.92
2023-04-25T16:05:52.848Z,14.74
2023-04-25T16:08:20.293Z,14.54
2023-04-25T16:10:48.422Z,14.72
2023-04-25T16:13:15.774Z,14.84
2023-04-25T16:15:43.315Z,14.43
2023-04-25T16:18:11.067Z,14.79
2023-04-25T16:20:38.459Z,14.90
2023-04-25T16:23:05.901Z,14.31
2023-04-25T16:25:33.525Z,14.49
2023-04-25T16:28:00.956Z,14.84
2023-04-25T16:30:28.597Z,14.50
2023-04-25T16:32:57.686Z,14.65
2023-04-25T16:35:25.653Z,14.70
2023-04-25T16:37:53.020Z,14.18
2023-04-25T16:40:23.356Z,14.66
2023-04-25T16:42:50.779Z,14.18
2023-04-25T16:45:20.305Z,14.12
2023-04-25T16:47:48.116Z,14.71
2023-04-25T16:50:16.222Z,14.53
2023-04-25T16:52:44.515Z,14.58
2023-04-25T16:55:13.264Z,14.10
2023-04-25T16:57:40.832Z,14.65
2023-04-25T17:00:13.810Z,14.58
2023-04-25T17:02:41.999Z,14.60
2023-04-25T17:05:10.528Z,14.27
2023-04-25T17:07:38.437Z,13.85
2023-04-25T17:10:06.692Z,13.95
2023-04-25T17:12:34.448Z,14.34
2023-04-25T17:15:02.078Z,13.99
2023-04-25T17:17:31.843Z,14.32
2023-04-25T17:19:59.811Z,14.32
2023-04-25T17:22:27.565Z,14.20
2023-04-25T17:24:55.457Z,14.50
2023-04-25T17:27:22.861Z,14.78
2023-04-25T17:29:54.550Z,14.26
2023-04-25T17:32:22.574Z,14.27
2023-04-25T17:34:50.703Z,14.12
2023-04-25T17:37:33.282Z,14.17
2023-04-25T17:40:02.211Z,13.93
2023-04-25T17:42:29.889Z,13.70
2023-04-25T17:44:57.783Z,14.10
2023-04-25T17:47:26.704Z,14.25
2023-04-25T17:49:54.850Z,14.17
2023-04-25T17:52:22.445Z,14.45
2023-04-25T17:54:50.789Z,14.42
2023-04-25T17:57:18.822Z,14.57
2023-04-25T17:59:46.552Z,14.54
2023-04-25T18:02:16.397Z,14.06
2023-04-25T18:04:45.350Z,14.21
2023-04-25T18:07:13.286Z,13.41
2023-04-25T18:09:41.135Z,13.96
2023-04-25T18:12:09.661Z,13.71
2023-04-25T18:14:40.494Z,13.60
2023-04-25T18:17:09.358Z,13.63
2023-04-25T18:19:37.926Z,13.84
2023-04-25T18:22:06.457Z,13.54
2023-04-25T18:24:34.357Z,13.89
2023-04-25T18:27:08.964Z,13.72
2023-04-25T18:29:43.623Z,13.53
2023-04-25T18:32:34.403Z,13.85
2023-04-25T18:35:02.616Z,13.05
2023-04-25T18:37:31.223Z,12.91
2023-04-25T18:39:59.408Z,12.69
2023-04-25T18:42:27.451Z,12.63
2023-04-25T18:44:57.148Z,12.66
2023-04-25T18:47:25.353Z,12.29
2023-04-25T18:49:53.377Z,12.26
2023-04-25T18:52:21.480Z,12.35
2023-04-25T18:54:49.518Z,12.25
2023-04-25T18:57:19.897Z,12.36
2023-04-25T18:59:49.202Z,12.25
2023-04-25T19:02:18.380Z,11.85
2023-04-25T19:04:46.863Z,12.51
2023-04-25T19:07:20.966Z,12.24
2023-04-25T19:09:50.296Z,12.23
2023-04-25T19:12:18.642Z,12.12
2023-04-25T19:14:47.501Z,11.83
2023-04-25T19:17:18.575Z,11.77
2023-04-25T19:19:47.461Z,11.75
2023-04-25T19:22:17.561Z,12.08
2023-04-25T19:25:06.703Z,11.87
2023-04-25T19:27:39.573Z,11.82
2023-04-25T19:30:09.551Z,11.54
2023-04-25T19:32:39.200Z,11.71
2023-04-25T19:35:11.121Z,11.38
2023-04-25T19:37:41.570Z,11.46
2023-04-25T19:40:10.069Z,11.67
2023-04-25T19:42:38.454Z,11.84
2023-04-25T19:45:08.181Z,12.07
2023-04-25T19:47:39.890Z,12.00
2023-04-25T19:50:10.053Z,12.29
2023-04-25T19:52:39.148Z,12.29
2023-04-25T19:55:08.355Z,11.72
2023-04-25T19:57:38.085Z,12.16
2023-04-25T20:00:11.677Z,11.83
2023-04-25T20:02:40.447Z,11.20
2023-04-25T20:05:09.240Z,11.52
2023-04-25T20:07:37.366Z,11.47
2023-04-25T20:10:06.963Z,10.99
2023-04-25T20:12:37.759Z,11.29
2023-04-25T20:15:08.443Z,11.17
2023-04-25T20:17:37.464Z,10.84
2023-04-25T20:20:07.038Z,11.30
2023-04-25T20:22:39.096Z,10.89
2023-04-25T20:25:08.809Z,11.17
2023-04-25T20:27:38.396Z,11.33
2023-04-25T20:30:08.758Z,11.07
2023-04-25T20:32:37.037Z,11.17
2023-04-25T20:35:10.532Z,10.96
2023-04-25T20:37:38.612Z,10.98
2023-04-25T20:40:09.571Z,11.01
2023-04-25T20:42:37.045Z,11.12
2023-04-25T20:45:12.707Z,11.01
2023-04-25T20:47:44.529Z,10.77
2023-04-25T20:50:12.414Z,10.99
2023-04-25T20:52:39.884Z,10.84
2023-04-25T20:55:08.169Z,10.41
2023-04-25T20:57:38.219Z,10.91
2023-04-25T21:00:27.315Z,10.35
2023-04-25T21:02:56.872Z,10.55
2023-04-25T21:05:24.716Z,10.34
2023-04-25T21:07:52.891Z,10.60
2023-04-25T21:10:21.290Z,10.46
2023-04-25T21:12:49.484Z,9.96
2023-04-25T21:15:18.137Z,10.29
2023-04-25T21:17:49.853Z,10.44
2023-04-25T21:20:22.025Z,10.37
2023-04-25T21:22:53.757Z,10.45
2023-04-25T21:25:29.292Z,10.49
2023-04-25T21:27:59.762Z,10.05
2023-04-25T21:30:27.307Z,10.49
2023-04-25T21:32:54.903Z,10.51
2023-04-25T21:35:22.927Z,10.64
2023-04-25T21:37:50.736Z,10.68
2023-04-25T21:40:18.875Z,10.12
2023-04-25T21:42:50.128Z,10.40
2023-04-25T21:45:18.418Z,10.59
2023-04-25T21:47:47.839Z,10.53
2023-04-25T21:50:15.642Z,10.44
2023-04-25T21:52:43.031Z,10.59
2023-04-25T21:55:11.555Z,10.60
2023-04-25T21:57:39.536Z,10.90
2023-04-25T22:00:20.183Z,11.21
2023-04-25T22:02:49.545Z,11.08
2023-04-25T22:05:22.627Z,11.25
2023-04-25T22:07:51.319Z,11.26
2023-04-25T22:10:20.392Z,11.03
2023-04-25T22:12:51.138Z,10.82
2023-04-25T22:15:21.731Z,10.43
2023-04-25T22:17:52.236Z,10.58
2023-04-25T22:20:26.093Z,10.95
2023-04-25T22:22:56.406Z,11.10
2023-04-25T22:25:26.588Z,11.09
2023-04-25T22:27:55.569Z,10.96
2023-04-25T22:30:32.596Z,11.11
2023-04-25T22:33:00.054Z,10.83
2023-04-25T22:35:27.752Z,10.36
2023-04-25T22:37:55.867Z,9.92
2023-04-25T22:40:23.287Z,9.84
2023-04-25T22:42:50.690Z,10.14
2023-04-25T22:45:18.868Z,10.02
2023-04-25T22:47:46.453Z,9.65
2023-04-25T22:50:16.687Z,9.85
2023-04-25T22:52:44.812Z,10.21
2023-04-25T22:55:13.092Z,9.51
2023-04-25T22:57:40.715Z,9.97
2023-04-25T23:00:19.637Z,10.35
2023-04-25T23:02:48.016Z,9.77
2023-04-25T23:05:15.785Z,9.65
2023-04-25T23:07:45.013Z,9.26
2023-04-25T23:10:14.056Z,9.45
2023-04-25T23:12:41.931Z,9.63
2023-04-25T23:15:10.032Z,9.39
2023-04-25T23:17:38.099Z,9.39
2023-04-25T23:20:07.857Z,9.68
2023-04-25T23:22:36.144Z,9.77
2023-04-25T23:25:03.809Z,9.87
2023-04-25T23:27:31.728Z,10.08
2023-04-25T23:29:59.093Z,9.69
2023-04-25T23:32:26.932Z,9.80
2023-04-25T23:34:54.564Z,10.16
2023-04-25T23:37:21.961Z,10.31
2023-04-25T23:39:52.475Z,9.91
2023-04-25T23:42:20.339Z,10.06
2023-04-25T23:44:47.753Z,9.98
2023-04-25T23:47:17.683Z,9.63
2023-04-25T23:49:46.226Z,9.48
2023-04-25T23:52:13.656Z,9.70
2023-04-25T23:54:41.178Z,9.70
2023-04-25T23:57:08.813Z,9.86
2023-04-25T23:59:36.220Z,9.69
